Slotergracht — PDBP — position and weather

sailwx.info

Track history (hours):
 
Tides and Currents Weather Stations Pressure Air Temp Water Temp Dewpoint Dewpoint Depression Visibility Wind Speed Wind Dir Waves Ship Positions

Slotergracht

Last reported at 2015-Jan-28 00:00 UTC. Time now 2015-Feb-01 19:49 UTC.
Position N 37°18' W 041°24'.

Length 168 m; beam 25 m.

Type: Cargo ship. MMSI: 246456000.

Wind from 180 at 17 knots

Waves 2.0 meters (7 feet), 5 second period

Barometer 1037.7 mb
Air temperature 19.0 ° C
Visibility: greater than 10.8 NM
Dewpoint 15.9 ° C
Water temperature 19.5 ° C

Date/timePositionNaut miles runAvg speedWind from/ knotsBaromVisibWave heightAir tempDewpointWater temp
2015-Jan-28 00:00N 37°18' W 041°24'8113.5 180 / 171037.710.8 2.019.015.919.5
2015-Jan-27 18:00N 37°18' W 039°42'28615.9 210 / 91036.310.8 20.016.919.8
2015-Jan-27 00:00N 37°18' W 033°42'10016.7 160 / 101037.210.8 0.517.014.618.0
2015-Jan-26 18:00N 37°24' W 031°36'10916.8 130 / 71035.710.8 17.812.817.7
2015-Jan-26 11:32N 37°28' W 029°19'1716.8
2015-Jan-26 10:33N 37°28' W 028°58'1717.0
2015-Jan-26 09:33N 37°27' W 028°37'1717.0
2015-Jan-26 08:33N 37°28' W 028°16'1717.0
2015-Jan-26 07:34N 37°28' W 027°54'2617.2
2015-Jan-26 06:03N 37°29' W 027°22'1017.5
2015-Jan-26 05:30N 37°29' W 027°10'1617.3
2015-Jan-26 04:34N 37°29' W 026°49'1717.3
2015-Jan-26 03:34N 37°29' W 026°27'1817.6
2015-Jan-26 02:34N 37°29' W 026°05'1817.7
2015-Jan-26 01:34N 37°29' W 025°43'1817.8
2015-Jan-26 00:34N 37°30' W 025°20'1730.3
2015-Jan-26 00:00N 37°24' W 025°00'716.8 999 / 41035.210.8 15.912.716.3
2015-Jan-25 23:34N 37°31' W 024°58'1817.9
2015-Jan-25 22:33N 37°42' W 024°41'1717.3
2015-Jan-25 21:33N 37°53' W 024°24'1817.5
2015-Jan-25 20:32N 38°05' W 024°06'14817.4
2015-Jan-25 12:00N 39°36' W 021°36'21017.5 160 / 81035.810.8 14.811.416.0
2015-Jan-25 00:00N 41°48' W 018°00'10717.8 999 / 41035.010.8 14.513.713.7
2015-Jan-24 18:00N 42°54' W 016°06'10217.1 230 / 71034.3 5.4 14.010.9
2015-Jan-24 12:00N 44°00' W 014°18'20817.3 270 / 101034.410.8 0.514.012.313.4
2015-Jan-24 00:00N 46°12' W 010°30'50416.3 320 / 121029.0 5.4 0.516.011.712.7
2015-Jan-22 17:09N 50°34' E 000°18'1118.9
2015-Jan-22 16:33N 50°38' E 000°35'3616.9
2015-Jan-22 14:28N 50°60' E 001°19'1313.9
2015-Jan-22 13:34N 51°08' E 001°34'1414.1
2015-Jan-22 12:33N 51°18' E 001°50'1717.0
2015-Jan-22 11:32N 51°32' E 002°05'6119.1
2015-Jan-22 08:22N 52°19' E 003°08'6416.7
2015-Jan-22 04:30N 53°07' E 004°19'1516.0
2015-Jan-22 03:32N 53°21' E 004°31'1616.6
2015-Jan-22 02:33N 53°31' E 004°52'1818.4
2015-Jan-22 01:34N 53°38' E 005°21'1818.2
2015-Jan-22 00:33N 53°43' E 005°51'1912.7
2015-Jan-21 23:05N 53°37' E 006°21'310.7
2015-Jan-21 22:50N 53°37' E 006°25'113.9
2015-Jan-21 22:46N 53°37' E 006°27'414.2
2015-Jan-21 22:29N 53°37' E 006°34'1213.5
2015-Jan-21 21:33N 53°29' E 006°50'2 1.8
2015-Jan-21 20:31N 53°27' E 006°50'0 0.0
2015-Jan-21 19:31N 53°27' E 006°50'0 0.0
2015-Jan-21 18:25N 53°27' E 006°50'0 0.0
2015-Jan-21 17:31N 53°27' E 006°50'0 0.0
2015-Jan-21 16:31N 53°27' E 006°50'0 0.0
2015-Jan-21 15:31N 53°27' E 006°50'0 0.0
2015-Jan-21 14:31N 53°27' E 006°50'0 0.0
2015-Jan-21 13:31N 53°27' E 006°50'0 0.0
2015-Jan-21 12:31N 53°27' E 006°50'1 0.6
2015-Jan-21 11:33N 53°28' E 006°50'1110.7
2015-Jan-21 10:33N 53°35' E 006°37'7614.6
2015-Jan-21 05:21N 54°51' E 006°42'1417.5
2015-Jan-21 04:34N 55°04' E 006°50'1717.3
2015-Jan-21 03:33N 55°20' E 007°00'1717.0
2015-Jan-21 02:33N 55°37' E 007°10'17715.8
2015-Jan-20 15:22N 57°47' E 010°49'1517.9
2015-Jan-20 14:32N 57°37' E 011°10'1717.6
2015-Jan-20 13:33N 57°23' E 011°30'2618.5
2015-Jan-20 12:10N 56°59' E 011°46'1118.4
2015-Jan-20 11:33N 56°48' E 011°52'13516.0
2015-Jan-20 03:06N 54°36' E 011°00'917.2
2015-Jan-20 02:33N 54°35' E 011°16'1817.5
2015-Jan-20 01:33N 54°27' E 011°44'1616.6
2015-Jan-20 00:34N 54°28' E 012°12'1716.6
2015-Jan-19 23:33N 54°41' E 012°29'2517.1
2015-Jan-19 22:05N 54°53' E 013°08'1017.7
2015-Jan-19 21:32N 54°56' E 013°24'1717.0
2015-Jan-19 20:33N 55°01' E 013°51'1615.9
2015-Jan-19 19:33N 55°11' E 014°13'1717.4
2015-Jan-19 18:33N 55°24' E 014°32'1717.0
2015-Jan-19 17:33N 55°34' E 014°57'1716.8
2015-Jan-19 16:31N 55°43' E 015°23'  
Track history (hours):
 
Tides and Currents Weather Stations Pressure Air Temp Water Temp Dewpoint Dewpoint Depression Visibility Wind Speed Wind Dir Waves Ship Positions

Slotergracht

Last reported at 2015-Jan-28 00:00 UTC. Time now 2015-Feb-01 19:49 UTC.
Position N 37°18' W 041°24'.

Length 168 m; beam 25 m.

Type: Cargo ship. MMSI: 246456000.

Wind from 180 at 17 knots

Waves 2.0 meters (7 feet), 5 second period

Barometer 1037.7 mb
Air temperature 19.0 ° C
Visibility: greater than 10.8 NM
Dewpoint 15.9 ° C
Water temperature 19.5 ° C

Date/timePositionNaut miles runAvg speedWind from/ knotsBaromVisibWave heightAir tempDewpointWater temp
2015-Jan-28 00:00N 37°18' W 041°24'8113.5 180 / 171037.710.8 2.019.015.919.5
2015-Jan-27 18:00N 37°18' W 039°42'28615.9 210 / 91036.310.8 20.016.919.8
2015-Jan-27 00:00N 37°18' W 033°42'10016.7 160 / 101037.210.8 0.517.014.618.0
2015-Jan-26 18:00N 37°24' W 031°36'10916.8 130 / 71035.710.8 17.812.817.7
2015-Jan-26 11:32N 37°28' W 029°19'1716.8
2015-Jan-26 10:33N 37°28' W 028°58'1717.0
2015-Jan-26 09:33N 37°27' W 028°37'1717.0
2015-Jan-26 08:33N 37°28' W 028°16'1717.0
2015-Jan-26 07:34N 37°28' W 027°54'2617.2
2015-Jan-26 06:03N 37°29' W 027°22'1017.5
2015-Jan-26 05:30N 37°29' W 027°10'1617.3
2015-Jan-26 04:34N 37°29' W 026°49'1717.3
2015-Jan-26 03:34N 37°29' W 026°27'1817.6
2015-Jan-26 02:34N 37°29' W 026°05'1817.7
2015-Jan-26 01:34N 37°29' W 025°43'1817.8
2015-Jan-26 00:34N 37°30' W 025°20'1730.3
2015-Jan-26 00:00N 37°24' W 025°00'716.8 999 / 41035.210.8 15.912.716.3
2015-Jan-25 23:34N 37°31' W 024°58'1817.9
2015-Jan-25 22:33N 37°42' W 024°41'1717.3
2015-Jan-25 21:33N 37°53' W 024°24'1817.5
2015-Jan-25 20:32N 38°05' W 024°06'14817.4
2015-Jan-25 12:00N 39°36' W 021°36'21017.5 160 / 81035.810.8 14.811.416.0
2015-Jan-25 00:00N 41°48' W 018°00'10717.8 999 / 41035.010.8 14.513.713.7
2015-Jan-24 18:00N 42°54' W 016°06'10217.1 230 / 71034.3 5.4 14.010.9
2015-Jan-24 12:00N 44°00' W 014°18'20817.3 270 / 101034.410.8 0.514.012.313.4
2015-Jan-24 00:00N 46°12' W 010°30'50416.3 320 / 121029.0 5.4 0.516.011.712.7
2015-Jan-22 17:09N 50°34' E 000°18'1118.9
2015-Jan-22 16:33N 50°38' E 000°35'3616.9
2015-Jan-22 14:28N 50°60' E 001°19'1313.9
2015-Jan-22 13:34N 51°08' E 001°34'1414.1
2015-Jan-22 12:33N 51°18' E 001°50'1717.0
2015-Jan-22 11:32N 51°32' E 002°05'6119.1
2015-Jan-22 08:22N 52°19' E 003°08'6416.7
2015-Jan-22 04:30N 53°07' E 004°19'1516.0
2015-Jan-22 03:32N 53°21' E 004°31'1616.6
2015-Jan-22 02:33N 53°31' E 004°52'1818.4
2015-Jan-22 01:34N 53°38' E 005°21'1818.2
2015-Jan-22 00:33N 53°43' E 005°51'1912.7
2015-Jan-21 23:05N 53°37' E 006°21'310.7
2015-Jan-21 22:50N 53°37' E 006°25'113.9
2015-Jan-21 22:46N 53°37' E 006°27'414.2
2015-Jan-21 22:29N 53°37' E 006°34'1213.5
2015-Jan-21 21:33N 53°29' E 006°50'2 1.8
2015-Jan-21 20:31N 53°27' E 006°50'0 0.0
2015-Jan-21 19:31N 53°27' E 006°50'0 0.0
2015-Jan-21 18:25N 53°27' E 006°50'0 0.0
2015-Jan-21 17:31N 53°27' E 006°50'0 0.0
2015-Jan-21 16:31N 53°27' E 006°50'0 0.0
2015-Jan-21 15:31N 53°27' E 006°50'0 0.0
2015-Jan-21 14:31N 53°27' E 006°50'0 0.0
2015-Jan-21 13:31N 53°27' E 006°50'0 0.0
2015-Jan-21 12:31N 53°27' E 006°50'1 0.6
2015-Jan-21 11:33N 53°28' E 006°50'1110.7
2015-Jan-21 10:33N 53°35' E 006°37'7614.6
2015-Jan-21 05:21N 54°51' E 006°42'1417.5
2015-Jan-21 04:34N 55°04' E 006°50'1717.3
2015-Jan-21 03:33N 55°20' E 007°00'1717.0
2015-Jan-21 02:33N 55°37' E 007°10'17715.8
2015-Jan-20 15:22N 57°47' E 010°49'1517.9
2015-Jan-20 14:32N 57°37' E 011°10'1717.6
2015-Jan-20 13:33N 57°23' E 011°30'2618.5
2015-Jan-20 12:10N 56°59' E 011°46'1118.4
2015-Jan-20 11:33N 56°48' E 011°52'13516.0
2015-Jan-20 03:06N 54°36' E 011°00'917.2
2015-Jan-20 02:33N 54°35' E 011°16'1817.5
2015-Jan-20 01:33N 54°27' E 011°44'1616.6
2015-Jan-20 00:34N 54°28' E 012°12'1716.6
2015-Jan-19 23:33N 54°41' E 012°29'2517.1
2015-Jan-19 22:05N 54°53' E 013°08'1017.7
2015-Jan-19 21:32N 54°56' E 013°24'1717.0
2015-Jan-19 20:33N 55°01' E 013°51'1615.9
2015-Jan-19 19:33N 55°11' E 014°13'1717.4
2015-Jan-19 18:33N 55°24' E 014°32'1717.0
2015-Jan-19 17:33N 55°34' E 014°57'1716.8
2015-Jan-19 16:31N 55°43' E 015°23'  

Dump ship's entire track history